Time;durP1;ratioP1;P1;durP2;ratioP2;P2;SDS_P1;SDS_P2;PMS_P1;PMS_P2;Temp;Humidity;BMP_temperature;BMP_pressure;BME280_temperature;BME280_humidity;BME280_pressure;Samples;Min_cycle;Max_cycle;Signal;HPM_P1;HPM_P2
2023/12/17 00:00:15;;;;;;;0.80;0.50;;;;;;;-143.84;83.26;45277.56;5111384;28;20527;-61
2023/12/17 00:02:42;;;;;;;1.00;0.90;;;;;;;-143.84;83.05;45287.09;5111309;28;20563;-62
2023/12/17 00:05:09;;;;;;;1.00;0.90;;;;;;;-143.84;83.15;45292.81;5111505;28;20439;-62
2023/12/17 00:07:36;;;;;;;1.23;1.13;;;;;;;-143.84;82.98;45308.03;5111357;28;20552;-61
2023/12/17 00:10:06;;;;;;;0.80;0.60;;;;;;;-143.84;83.66;45271.88;5111328;28;20440;-62
2023/12/17 00:12:33;;;;;;;0.80;0.57;;;;;;;-143.84;83.26;45285.19;5111209;28;20967;-61
2023/12/17 00:15:00;;;;;;;1.00;0.90;;;;;;;-143.84;83.38;45260.44;5111277;28;20432;-62
2023/12/17 00:17:27;;;;;;;0.80;0.50;;;;;;;-143.84;83.18;45315.66;5110767;28;20484;-61
2023/12/17 00:19:54;;;;;;;0.80;0.70;;;;;;;-143.84;83.21;45269.97;5111088;28;20475;-61
2023/12/17 00:22:22;;;;;;;1.03;0.93;;;;;;;-143.84;83.04;45283.28;5111062;28;20471;-61
2023/12/17 00:24:49;;;;;;;0.80;0.63;;;;;;;-143.84;82.76;45281.38;5111120;28;20443;-62
2023/12/17 00:27:17;;;;;;;0.90;0.70;;;;;;;-143.84;82.81;45273.78;5111008;28;20945;-61
2023/12/17 00:29:44;;;;;;;0.80;0.70;;;;;;;-143.84;82.74;45279.47;5111009;28;20439;-61
2023/12/17 00:32:11;;;;;;;0.80;0.50;;;;;;;-143.84;83.44;45285.19;5110706;28;20437;-61
2023/12/17 00:34:38;;;;;;;3.37;0.90;;;;;;;-143.84;83.30;45269.97;5109796;28;20445;-61
2023/12/17 00:37:06;;;;;;;0.80;0.63;;;;;;;-143.84;82.49;45268.06;5111139;28;20838;-61
2023/12/17 00:39:33;;;;;;;0.80;0.60;;;;;;;-143.84;82.62;45269.97;5111132;28;20463;-60
2023/12/17 00:42:00;;;;;;;1.57;1.10;;;;;;;-143.84;82.66;45273.78;5110649;27;20937;-62
2023/12/17 00:44:28;;;;;;;0.80;0.50;;;;;;;-143.84;82.70;45289.00;5110619;28;20504;-62
2023/12/17 00:46:56;;;;;;;0.80;0.50;;;;;;;-143.84;82.54;45285.19;5110605;28;20443;-61
2023/12/17 00:49:23;;;;;;;1.00;0.63;;;;;;;-143.84;82.66;45271.88;5110449;28;20502;-62
2023/12/17 00:51:50;;;;;;;0.80;0.70;;;;;;;-143.84;82.04;45294.72;5110422;28;20462;-61
2023/12/17 00:54:17;;;;;;;0.80;0.50;;;;;;;-143.84;82.15;45269.97;5110344;28;20431;-61
2023/12/17 00:56:44;;;;;;;0.80;0.40;;;;;;;-143.84;81.65;45281.38;5110302;28;20809;-61
2023/12/17 00:59:11;;;;;;;3.40;1.37;;;;;;;-143.84;81.61;45289.00;5110378;28;20444;-61
2023/12/17 01:01:40;;;;;;;0.80;0.50;;;;;;;-143.84;81.63;45283.28;5110419;28;20492;-61
2023/12/17 01:04:07;;;;;;;0.80;0.40;;;;;;;-143.84;81.70;45268.06;5110174;28;20505;-61
2023/12/17 01:06:34;;;;;;;0.80;0.60;;;;;;;-143.84;81.72;45281.38;5110075;28;20444;-61
2023/12/17 01:09:01;;;;;;;0.80;0.50;;;;;;;-143.84;81.03;45258.53;5110473;27;20508;-61
2023/12/17 01:11:28;;;;;;;1.20;1.10;;;;;;;-143.84;80.79;45290.91;5110082;28;20441;-61
2023/12/17 01:13:55;;;;;;;0.80;0.60;;;;;;;-143.84;80.92;45289.00;5110165;28;20436;-61
2023/12/17 01:16:23;;;;;;;0.80;0.50;;;;;;;-143.84;80.57;45260.44;5110230;28;20521;-62
2023/12/17 01:18:52;;;;;;;0.80;0.60;;;;;;;-143.84;80.39;45271.88;5110036;28;20435;-61
2023/12/17 01:21:19;;;;;;;0.80;0.50;;;;;;;-143.84;80.16;45266.16;5109922;28;21284;-61
2023/12/17 01:23:46;;;;;;;0.90;0.80;;;;;;;-143.84;80.39;45258.53;5110077;28;20609;-62
2023/12/17 01:26:20;;;;;;;0.80;0.50;;;;;;;-143.84;79.74;45266.16;5109860;28;20434;-61
2023/12/17 01:28:48;;;;;;;5.47;1.90;;;;;;;-143.84;79.91;45287.09;5109697;28;20437;-61
2023/12/17 01:31:15;;;;;;;0.97;0.87;;;;;;;-143.84;79.55;45281.38;5109591;28;20443;-61
2023/12/17 01:33:42;;;;;;;0.80;0.50;;;;;;;-143.84;79.16;45287.09;5109979;28;21253;-61
2023/12/17 01:36:11;;;;;;;0.80;0.50;;;;;;;-143.84;79.41;45273.78;5109728;28;20454;-61
2023/12/17 01:38:38;;;;;;;1.53;1.43;;;;;;;-143.84;79.32;45258.53;5109438;28;20447;-61
2023/12/17 01:41:06;;;;;;;0.80;0.63;;;;;;;-143.84;79.45;45287.09;5109507;28;20439;-61
2023/12/17 01:43:34;;;;;;;0.80;0.60;;;;;;;-143.84;78.97;45277.56;5109308;27;20521;-61
2023/12/17 01:46:01;;;;;;;1.30;1.00;;;;;;;-143.84;79.22;45287.09;5109279;28;20441;-59
2023/12/17 01:48:30;;;;;;;0.80;0.60;;;;;;;-143.84;78.79;45266.16;5109439;28;20437;-59
2023/12/17 01:50:57;;;;;;;1.40;1.13;;;;;;;-143.84;79.00;45273.78;5109689;28;20440;-59
2023/12/17 01:53:26;;;;;;;0.80;0.40;;;;;;;-143.84;79.10;45277.56;5109407;28;20512;-59
2023/12/17 01:55:54;;;;;;;1.30;0.93;;;;;;;-143.84;78.40;45266.16;5109291;28;20767;-59
2023/12/17 01:58:22;;;;;;;0.80;0.50;;;;;;;-143.84;78.03;45275.66;5109331;28;20519;-59
2023/12/17 02:00:50;;;;;;;0.80;0.50;;;;;;;-143.84;78.36;45268.06;5109693;28;20428;-60
2023/12/17 02:03:17;;;;;;;0.80;0.53;;;;;;;-143.84;78.40;45273.78;5109258;28;20988;-59
2023/12/17 02:05:46;;;;;;;1.00;0.67;;;;;;;-143.84;78.14;45275.66;5109558;28;20432;-59
2023/12/17 02:08:13;;;;;;;0.80;0.60;;;;;;;-143.84;78.20;45239.50;5109358;28;20532;-59
2023/12/17 02:10:42;;;;;;;0.80;0.60;;;;;;;-143.84;78.12;45285.19;5109348;28;21354;-59
2023/12/17 02:13:10;;;;;;;0.80;0.50;;;;;;;-143.84;78.67;45304.25;5109347;28;20440;-59
2023/12/17 02:15:38;;;;;;;1.00;0.90;;;;;;;-143.84;78.51;45273.78;5109082;28;20451;-60
2023/12/17 02:18:05;;;;;;;1.37;1.27;;;;;;;-143.84;78.23;45277.56;5108915;28;20975;-59
2023/12/17 02:20:34;;;;;;;0.80;0.60;;;;;;;-143.84;78.37;45262.34;5109215;28;20535;-59
2023/12/17 02:23:04;;;;;;;1.17;1.00;;;;;;;-143.84;78.60;45262.34;5109003;28;20504;-59
2023/12/17 02:25:32;;;;;;;0.80;0.50;;;;;;;-143.84;78.92;45294.72;5108766;28;20437;-59
2023/12/17 02:28:00;;;;;;;1.00;0.70;;;;;;;-143.84;78.37;45304.25;5109137;28;20443;-59
2023/12/17 02:30:27;;;;;;;1.93;1.17;;;;;;;-143.84;78.22;45269.97;5109054;28;20573;-59
2023/12/17 02:32:54;;;;;;;0.80;0.60;;;;;;;-143.84;78.29;45268.06;5109042;28;20448;-60
2023/12/17 02:35:22;;;;;;;0.90;0.70;;;;;;;-143.84;78.63;45264.25;5108756;28;20782;-59
2023/12/17 02:37:50;;;;;;;0.80;0.57;;;;;;;-143.84;79.39;45273.78;5098049;28;20845;-59
2023/12/17 02:40:18;;;;;;;0.80;0.50;;;;;;;-143.84;79.57;45309.94;5088568;28;20448;-59
2023/12/17 02:42:45;;;;;;;2.13;1.57;;;;;;;-143.84;79.14;45264.25;5088464;28;20941;-59
2023/12/17 02:45:13;;;;;;;0.80;0.60;;;;;;;-143.84;79.69;45287.09;5088431;28;20474;-60
2023/12/17 02:47:40;;;;;;;1.10;1.00;;;;;;;-143.84;80.02;45298.53;5088562;28;20444;-60
2023/12/17 02:50:08;;;;;;;2.40;1.80;;;;;;;-143.84;80.23;45289.00;5088516;28;20449;-59
2023/12/17 02:52:35;;;;;;;1.00;0.90;;;;;;;-143.84;80.34;45287.09;5088576;28;20436;-60
2023/12/17 02:55:02;;;;;;;0.80;0.50;;;;;;;-143.84;80.36;45281.38;5088720;28;20428;-59
2023/12/17 02:57:31;;;;;;;1.03;0.87;;;;;;;-143.84;80.42;45304.25;5090622;28;20440;-60
2023/12/17 02:59:58;;;;;;;1.23;1.00;;;;;;;-143.84;80.82;45285.19;5092208;28;20453;-59
2023/12/17 03:02:25;;;;;;;1.20;1.00;;;;;;;-143.84;81.16;45283.28;5092030;28;21080;-60
2023/12/17 03:04:52;;;;;;;0.80;0.50;;;;;;;-143.84;81.12;45275.66;5091265;28;20476;-60
2023/12/17 03:07:19;;;;;;;0.80;0.40;;;;;;;-143.84;80.86;45289.00;5090993;28;20447;-60
2023/12/17 03:09:47;;;;;;;0.80;0.63;;;;;;;-143.84;80.85;45243.31;5091687;28;20870;-59
2023/12/17 03:12:15;;;;;;;0.80;0.73;;;;;;;-143.84;80.98;45266.16;5091666;28;21154;-60
2023/12/17 03:14:43;;;;;;;0.80;0.77;;;;;;;-143.84;81.43;45262.34;5091294;28;20449;-60
2023/12/17 03:17:10;;;;;;;0.80;0.50;;;;;;;-143.84;81.28;45262.34;5091673;28;20538;-60
2023/12/17 03:19:37;;;;;;;0.80;0.60;;;;;;;-143.84;81.41;45247.09;5092472;28;20448;-60
2023/12/17 03:22:05;;;;;;;0.80;0.60;;;;;;;-143.84;81.71;45290.91;5092110;28;20807;-60
2023/12/17 03:24:33;;;;;;;0.80;0.50;;;;;;;-143.84;81.44;45258.53;5091601;28;20983;-59
2023/12/17 03:27:00;;;;;;;0.80;0.60;;;;;;;-143.84;82.12;45285.19;5091902;28;20441;-59
2023/12/17 03:29:29;;;;;;;0.80;0.70;;;;;;;-143.84;81.73;45260.44;5092130;28;20439;-59
2023/12/17 03:31:58;;;;;;;0.80;0.50;;;;;;;-143.84;82.36;45289.00;5092003;28;20432;-59
2023/12/17 03:34:25;;;;;;;0.80;0.50;;;;;;;-143.84;82.77;45279.47;5091448;28;21078;-60
2023/12/17 03:36:52;;;;;;;1.77;1.17;;;;;;;-143.84;82.55;45298.53;5091658;28;20440;-60
2023/12/17 03:39:19;;;;;;;1.33;1.13;;;;;;;-143.84;82.81;45296.63;5091775;28;20428;-60
2023/12/17 03:41:46;;;;;;;0.80;0.50;;;;;;;-143.84;83.38;45279.47;5091601;28;20972;-60
2023/12/17 03:44:13;;;;;;;0.80;0.40;;;;;;;-143.84;83.70;45306.13;5091201;28;20484;-60
2023/12/17 03:46:40;;;;;;;1.33;1.00;;;;;;;-143.84;83.64;45266.16;5091571;28;20439;-59
2023/12/17 03:49:09;;;;;;;1.10;0.97;;;;;;;-143.84;84.18;45285.19;5091605;28;20863;-60
2023/12/17 03:51:36;;;;;;;0.80;0.60;;;;;;;-143.84;84.53;45271.88;5091316;28;20433;-60
2023/12/17 03:54:03;;;;;;;2.50;0.97;;;;;;;-143.84;84.39;45292.81;5091480;28;20436;-60
2023/12/17 03:56:31;;;;;;;0.80;0.50;;;;;;;-143.84;84.69;45271.88;5091393;28;20432;-60
2023/12/17 03:58:58;;;;;;;0.80;0.47;;;;;;;-143.84;84.89;45296.63;5090974;28;20440;-60
2023/12/17 04:01:25;;;;;;;0.80;0.50;;;;;;;-143.84;85.28;45268.06;5091458;28;20447;-60
2023/12/17 04:03:52;;;;;;;0.80;0.70;;;;;;;-143.84;85.68;45269.97;5090903;28;21035;-60
2023/12/17 04:06:20;;;;;;;0.90;0.73;;;;;;;-143.84;86.71;45281.38;5090711;28;20557;-60
2023/12/17 04:08:48;;;;;;;0.80;0.63;;;;;;;-143.84;86.57;45271.88;5090784;28;20958;-59
2023/12/17 04:11:15;;;;;;;1.00;0.60;;;;;;;-143.84;87.02;45281.38;5090973;28;20443;-60
2023/12/17 04:13:42;;;;;;;1.03;0.93;;;;;;;-143.84;87.33;45281.38;5090703;28;20453;-60
2023/12/17 04:16:09;;;;;;;0.80;0.50;;;;;;;-143.84;87.42;45279.47;5091135;28;20448;-59
2023/12/17 04:18:36;;;;;;;0.80;0.50;;;;;;;-143.84;87.87;45269.97;5090683;28;20451;-60
2023/12/17 04:21:04;;;;;;;11.63;3.33;;;;;;;-143.84;88.83;45285.19;5090592;28;20440;-60
2023/12/17 04:23:32;;;;;;;0.80;0.63;;;;;;;-143.84;89.41;45260.44;5090734;28;20502;-60
2023/12/17 04:25:59;;;;;;;1.83;1.67;;;;;;;-143.84;89.27;45289.00;5090447;28;20440;-60
2023/12/17 04:28:26;;;;;;;0.80;0.50;;;;;;;-143.84;88.85;45298.53;5090947;28;20444;-60
2023/12/17 04:30:53;;;;;;;0.80;0.50;;;;;;;-143.84;89.08;45275.66;5090741;28;20513;-60
2023/12/17 04:33:21;;;;;;;14.43;2.33;;;;;;;-143.84;89.61;45287.09;5090584;28;20437;-59
2023/12/17 04:35:48;;;;;;;0.90;0.77;;;;;;;-143.84;89.68;45273.78;5090242;28;20436;-60
2023/12/17 04:38:16;;;;;;;0.80;0.50;;;;;;;-143.84;89.71;45273.78;5090545;28;20853;-59
2023/12/17 04:40:46;;;;;;;0.80;0.50;;;;;;;-143.84;89.88;45279.47;5090288;28;20444;-60
2023/12/17 04:43:13;;;;;;;0.80;0.50;;;;;;;-143.84;89.38;45254.72;5090135;28;20462;-60
2023/12/17 04:45:40;;;;;;;1.83;1.73;;;;;;;-143.84;89.52;45296.63;5090145;28;20449;-60
2023/12/17 04:48:07;;;;;;;0.80;0.70;;;;;;;-143.84;89.90;45262.34;5090167;28;20483;-61
2023/12/17 04:50:35;;;;;;;0.83;0.67;;;;;;;-143.84;89.55;45273.78;5090087;28;20448;-60
2023/12/17 04:53:02;;;;;;;1.97;1.87;;;;;;;-143.84;89.90;45275.66;5089970;28;20432;-60
2023/12/17 04:55:29;;;;;;;1.63;1.37;;;;;;;-143.84;89.56;45292.81;5090375;28;20446;-60
2023/12/17 04:57:57;;;;;;;2.93;2.00;;;;;;;-143.84;89.88;45279.47;5090188;28;20448;-60
2023/12/17 05:00:24;;;;;;;0.90;0.70;;;;;;;-143.84;89.70;45269.97;5090048;28;20444;-60
2023/12/17 05:02:52;;;;;;;1.30;1.00;;;;;;;-143.84;90.04;45250.91;5089914;28;20500;-60
2023/12/17 05:05:22;;;;;;;1.97;1.80;;;;;;;-143.84;90.07;45249.00;5090145;28;20481;-60
2023/12/17 05:07:50;;;;;;;2.50;2.10;;;;;;;-143.84;89.71;45273.78;5089877;28;20437;-60
2023/12/17 05:10:17;;;;;;;0.80;0.57;;;;;;;-143.84;89.54;45289.00;5089754;28;20441;-60
2023/12/17 05:12:44;;;;;;;0.90;0.70;;;;;;;-143.84;89.78;45279.47;5089672;28;21013;-60
2023/12/17 05:15:12;;;;;;;1.67;1.23;;;;;;;-143.84;89.58;45279.47;5089606;28;20439;-60
2023/12/17 05:17:40;;;;;;;1.33;1.10;;;;;;;-143.84;88.90;45296.63;5089428;28;20476;-60
2023/12/17 05:20:09;;;;;;;0.80;0.40;;;;;;;-143.84;89.59;45266.16;5088799;28;20432;-60
2023/12/17 05:22:36;;;;;;;0.80;0.50;;;;;;;-143.84;88.70;45266.16;5089778;28;20480;-60
2023/12/17 05:25:03;;;;;;;1.10;0.90;;;;;;;-143.84;89.16;45308.03;5089993;28;20545;-59
2023/12/17 05:27:30;;;;;;;1.03;0.93;;;;;;;-143.84;88.44;45281.38;5089480;28;20475;-60
2023/12/17 05:29:57;;;;;;;0.80;0.50;;;;;;;-143.84;88.73;45266.16;5089318;28;20444;-60
2023/12/17 05:32:26;;;;;;;0.80;0.50;;;;;;;-143.84;88.59;45290.91;5089408;28;20442;-60
2023/12/17 05:34:53;;;;;;;0.80;0.63;;;;;;;-143.84;88.35;45268.06;5089260;28;20499;-59
2023/12/17 05:37:20;;;;;;;0.80;0.50;;;;;;;-143.84;88.64;45277.56;5089538;28;20859;-60
2023/12/17 05:39:47;;;;;;;0.93;0.83;;;;;;;-143.84;88.19;45283.28;5089181;28;20490;-60
2023/12/17 05:42:14;;;;;;;0.80;0.50;;;;;;;-143.84;87.97;45311.84;5089449;28;20441;-60
2023/12/17 05:44:41;;;;;;;0.93;0.83;;;;;;;-143.84;87.86;45277.56;5088956;28;20996;-59
2023/12/17 05:47:08;;;;;;;1.10;1.00;;;;;;;-143.84;87.60;45277.56;5089037;28;20467;-59
2023/12/17 05:49:39;;;;;;;1.30;0.90;;;;;;;-143.84;88.08;45289.00;5089551;28;20444;-59
2023/12/17 05:52:08;;;;;;;4.93;2.40;;;;;;;-143.84;88.15;45273.78;5089129;28;20449;-59
2023/12/17 05:54:35;;;;;;;0.80;0.57;;;;;;;-143.84;88.36;45256.63;5089119;28;20428;-60
2023/12/17 05:57:02;;;;;;;2.30;1.63;;;;;;;-143.84;88.05;45287.09;5089271;28;20494;-60
2023/12/17 05:59:30;;;;;;;0.80;0.60;;;;;;;-143.84;88.35;45264.25;5089064;28;20438;-60
2023/12/17 06:01:57;;;;;;;0.80;0.50;;;;;;;-143.84;87.80;45279.47;5088681;28;20451;-59
2023/12/17 06:04:24;;;;;;;0.80;0.50;;;;;;;-143.84;87.53;45275.66;5088937;28;20507;-60
2023/12/17 06:06:52;;;;;;;0.80;0.50;;;;;;;-143.84;87.45;45262.34;5088801;28;20488;-60
2023/12/17 06:09:19;;;;;;;0.80;0.50;;;;;;;-143.84;87.59;45260.44;5088776;28;21074;-60
2023/12/17 06:11:47;;;;;;;1.80;1.70;;;;;;;-143.84;87.21;45266.16;5088819;28;20445;-61
2023/12/17 06:14:14;;;;;;;0.93;0.80;;;;;;;-143.84;87.45;45264.25;5088845;28;20934;-60
2023/12/17 06:16:42;;;;;;;1.17;0.97;;;;;;;-143.84;87.35;45287.09;5088683;28;20491;-60
2023/12/17 06:19:09;;;;;;;2.10;1.90;;;;;;;-143.84;86.81;45254.72;5089191;28;20511;-59
2023/12/17 06:21:36;;;;;;;1.53;1.43;;;;;;;-143.84;87.35;45296.63;5088561;28;20781;-60
2023/12/17 06:24:05;;;;;;;0.80;0.50;;;;;;;-143.84;87.32;45269.97;5088522;28;21017;-60
2023/12/17 06:26:34;;;;;;;0.80;0.50;;;;;;;-143.84;87.16;45283.28;5088891;28;20463;-59
2023/12/17 06:29:02;;;;;;;1.07;0.70;;;;;;;-143.84;86.66;45254.72;5088449;28;20517;-60
2023/12/17 06:31:29;;;;;;;1.53;1.43;;;;;;;-143.84;86.17;45294.72;5091192;28;20442;-59
2023/12/17 06:33:56;;;;;;;0.80;0.50;;;;;;;-143.84;86.00;45269.97;5093132;28;20432;-60
2023/12/17 06:36:23;;;;;;;0.90;0.80;;;;;;;-143.84;85.51;45268.06;5092707;28;20436;-60
2023/12/17 06:38:50;;;;;;;0.80;0.50;;;;;;;-143.84;85.10;45245.19;5092710;28;20457;-59
2023/12/17 06:41:19;;;;;;;1.00;0.90;;;;;;;-143.84;84.49;45281.38;5092522;28;20937;-60
2023/12/17 06:43:46;;;;;;;0.80;0.57;;;;;;;-143.84;83.55;45292.81;5092301;28;20438;-60
2023/12/17 06:46:17;;;;;;;0.80;0.43;;;;;;;-143.84;83.31;45273.78;5092826;28;20438;-59
2023/12/17 06:48:44;;;;;;;0.80;0.57;;;;;;;-143.84;82.54;45275.66;5089736;28;20449;-62
2023/12/17 06:51:12;;;;;;;3.37;1.23;;;;;;;-143.84;82.17;45273.78;5092390;28;20471;-62
2023/12/17 06:53:39;;;;;;;3.37;1.00;;;;;;;-143.84;81.41;45249.00;5092265;28;21011;-61
2023/12/17 06:56:07;;;;;;;0.80;0.50;;;;;;;-143.84;80.07;45269.97;5092160;28;21104;-61
2023/12/17 06:58:37;;;;;;;0.80;0.50;;;;;;;-143.84;79.16;45258.53;5092137;28;20447;-61
2023/12/17 07:01:04;;;;;;;0.80;0.40;;;;;;;-143.84;78.46;45256.63;5091941;28;20446;-61
2023/12/17 07:03:31;;;;;;;0.90;0.70;;;;;;;-143.84;77.43;45252.81;5092058;28;20436;-61
2023/12/17 07:05:58;;;;;;;0.80;0.60;;;;;;;-143.84;76.58;45260.44;5091951;28;21088;-61
2023/12/17 07:08:26;;;;;;;0.80;0.40;;;;;;;-143.84;75.76;45258.53;5092165;28;20478;-62
2023/12/17 07:10:54;;;;;;;3.80;0.80;;;;;;;-143.84;75.44;45266.16;5091901;28;20474;-61
2023/12/17 07:13:21;;;;;;;0.80;0.53;;;;;;;-143.84;74.31;45260.44;5091794;28;20436;-61
2023/12/17 07:15:49;;;;;;;2.07;1.87;;;;;;;-143.84;73.19;45239.50;5091861;28;20937;-61
2023/12/17 07:18:16;;;;;;;2.50;1.63;;;;;;;-143.84;72.68;45254.72;5091618;28;20486;-61
2023/12/17 07:20:44;;;;;;;0.80;0.70;;;;;;;-143.84;71.81;45245.19;5091720;28;20455;-61
2023/12/17 07:23:11;;;;;;;0.80;0.50;;;;;;;-143.84;71.13;45226.16;5091252;28;20471;-61
2023/12/17 07:25:38;;;;;;;0.90;0.60;;;;;;;-143.84;70.22;45243.31;5091550;28;21000;-61
2023/12/17 07:28:05;;;;;;;0.80;0.50;;;;;;;-143.84;70.52;45247.09;5091367;28;20450;-61
2023/12/17 07:30:33;;;;;;;1.07;0.97;;;;;;;-143.84;69.71;45245.19;5091558;28;21002;-61
2023/12/17 07:33:02;;;;;;;1.27;1.13;;;;;;;-143.84;69.03;45237.59;5091496;28;21008;-61
2023/12/17 07:35:29;;;;;;;0.80;0.63;;;;;;;-143.84;67.40;45228.06;5091527;28;20438;-61
2023/12/17 07:37:56;;;;;;;0.80;0.50;;;;;;;-143.84;66.90;45247.09;5091162;28;20429;-61
2023/12/17 07:40:24;;;;;;;1.77;1.67;;;;;;;-143.84;66.53;45262.34;5090801;28;20966;-61
2023/12/17 07:42:51;;;;;;;0.80;0.40;;;;;;;-143.84;66.09;45222.34;5089791;28;20435;-61
2023/12/17 07:45:18;;;;;;;1.30;0.90;;;;;;;-143.84;65.30;45224.25;5090846;28;20868;-61
2023/12/17 07:47:45;;;;;;;0.83;0.63;;;;;;;-143.84;64.92;45222.34;5090459;28;20450;-61
2023/12/17 07:50:15;;;;;;;1.03;0.50;;;;;;;-143.84;63.06;45239.50;5090525;28;20459;-61
2023/12/17 07:52:42;;;;;;;1.97;1.70;;;;;;;-143.84;61.86;45241.41;5091071;28;20448;-61
2023/12/17 07:55:10;;;;;;;0.80;0.40;;;;;;;-143.84;60.41;45247.09;5090945;28;20442;-61
2023/12/17 07:57:37;;;;;;;1.63;1.53;;;;;;;-143.84;59.98;45235.69;5091029;28;20552;-61
2023/12/17 08:00:07;;;;;;;1.00;0.50;;;;;;;-143.84;59.49;45228.06;5090875;28;21010;-61
2023/12/17 08:02:35;;;;;;;0.80;0.60;;;;;;;-143.84;58.22;45245.19;5090941;28;20446;-61
2023/12/17 08:05:02;;;;;;;3.03;2.03;;;;;;;-143.84;58.02;45226.16;5090388;28;20488;-61
2023/12/17 08:07:31;;;;;;;1.00;0.83;;;;;;;-143.84;57.69;45216.63;5090686;28;20435;-61
2023/12/17 08:09:58;;;;;;;0.83;0.70;;;;;;;-143.84;56.75;45214.72;5090713;28;20455;-61
2023/12/17 08:12:26;;;;;;;0.80;0.60;;;;;;;-143.84;57.36;45228.06;5090854;28;20443;-61
2023/12/17 08:14:53;;;;;;;2.00;1.60;;;;;;;-143.84;56.65;45220.44;5090502;28;20494;-61
2023/12/17 08:17:20;;;;;;;7.43;1.90;;;;;;;-143.84;56.56;45241.41;5090315;28;20517;-61
2023/12/17 08:19:47;;;;;;;0.80;0.60;;;;;;;-143.84;56.62;45222.34;5090506;28;20459;-61
2023/12/17 08:22:15;;;;;;;0.90;0.70;;;;;;;-143.84;56.87;45256.63;5094918;28;20499;-61
2023/12/17 08:24:44;;;;;;;2.60;1.43;;;;;;;-143.84;55.73;45228.06;5100634;28;20495;-61
2023/12/17 08:27:13;;;;;;;0.90;0.80;;;;;;;-143.84;55.70;45210.94;5101266;28;20530;-61
2023/12/17 08:29:41;;;;;;;1.27;1.17;;;;;;;-143.84;56.04;45237.59;5101538;28;20529;-61
2023/12/17 08:32:08;;;;;;;4.13;1.60;;;;;;;-143.84;54.21;45231.88;5110781;28;20496;-61
2023/12/17 08:34:37;;;;;;;3.60;1.70;;;;;;;-143.84;54.40;45218.53;5110527;28;20996;-61
2023/12/17 08:37:04;;;;;;;1.07;0.93;;;;;;;-143.84;53.74;45218.53;5110903;28;21273;-61
2023/12/17 08:39:32;;;;;;;0.97;0.80;;;;;;;-143.84;53.61;45209.03;5110373;28;20445;-60
2023/12/17 08:42:00;;;;;;;1.30;1.17;;;;;;;-143.84;53.24;45207.13;5110541;28;20539;-61
2023/12/17 08:44:27;;;;;;;1.00;0.80;;;;;;;-143.84;52.29;45210.94;5110109;28;20451;-61
2023/12/17 08:46:55;;;;;;;1.30;0.87;;;;;;;-143.84;52.08;45207.13;5110240;28;20439;-61
2023/12/17 08:49:22;;;;;;;1.53;1.43;;;;;;;-143.84;52.12;45222.34;5110380;28;21002;-60
2023/12/17 08:51:50;;;;;;;1.50;1.00;;;;;;;-143.84;52.79;45212.84;5110085;28;20446;-61
2023/12/17 08:54:18;;;;;;;0.80;0.63;;;;;;;-143.84;52.13;45241.41;5109131;28;20451;-61
2023/12/17 08:56:46;;;;;;;2.00;1.63;;;;;;;-143.84;52.13;45224.25;5110087;28;20504;-61
2023/12/17 08:59:14;;;;;;;0.80;0.50;;;;;;;-143.84;51.82;45243.31;5110038;28;20439;-61
2023/12/17 09:01:41;;;;;;;1.60;1.10;;;;;;;-143.84;50.74;45228.06;5109813;28;20496;-61
2023/12/17 09:04:08;;;;;;;2.53;2.07;;;;;;;-143.84;51.49;45210.94;5110296;27;20526;-61
2023/12/17 09:06:44;;;;;;;1.40;0.67;;;;;;;-143.84;51.09;45207.13;5110080;27;20489;-61
2023/12/17 09:09:11;;;;;;;0.80;0.60;;;;;;;-143.84;51.36;45210.94;5096721;28;20522;-61
2023/12/17 09:11:38;;;;;;;1.10;1.00;;;;;;;-143.84;51.30;45186.16;5102453;28;20435;-61
2023/12/17 09:14:07;;;;;;;2.90;1.00;;;;;;;-143.84;52.27;45209.03;5076202;28;20437;-61
2023/12/17 09:16:37;;;;;;;1.03;0.93;;;;;;;-143.84;52.47;45210.94;5099110;28;20478;-61
2023/12/17 09:19:05;;;;;;;0.90;0.80;;;;;;;-143.84;54.11;45216.63;5103940;28;21461;-61
2023/12/17 09:21:32;;;;;;;1.20;1.10;;;;;;;-143.84;53.64;45222.34;5109886;28;20504;-61
2023/12/17 09:23:59;;;;;;;0.90;0.80;;;;;;;-143.84;52.90;45220.44;5109911;28;20431;-61
2023/12/17 09:26:26;;;;;;;0.83;0.60;;;;;;;-143.84;53.58;45233.78;5094611;28;21080;-61
2023/12/17 09:28:53;;;;;;;0.80;0.50;;;;;;;-143.84;52.81;45229.97;5089138;28;20436;-61
2023/12/17 09:31:20;;;;;;;2.93;1.73;;;;;;;-143.84;52.69;45193.78;5081814;28;20461;-61
2023/12/17 09:33:49;;;;;;;1.33;1.23;;;;;;;-143.84;51.94;45218.53;5088762;28;20434;-61
2023/12/17 09:36:16;;;;;;;1.10;1.00;;;;;;;-143.84;51.81;45229.97;5088988;28;20436;-61
2023/12/17 09:38:44;;;;;;;1.10;0.70;;;;;;;-143.84;52.21;45226.16;5081037;28;20966;-60
2023/12/17 09:41:11;;;;;;;0.80;0.63;;;;;;;-143.84;52.66;45193.78;5069190;28;20486;-61
2023/12/17 09:43:38;;;;;;;0.80;0.47;;;;;;;-143.84;51.67;45203.31;5083748;28;20509;-61
2023/12/17 09:46:05;;;;;;;0.80;0.60;;;;;;;-143.84;51.05;45199.50;5084905;28;20464;-60
2023/12/17 09:48:33;;;;;;;0.80;0.63;;;;;;;-143.84;51.24;45207.13;5087012;28;20451;-61
2023/12/17 09:51:03;;;;;;;0.90;0.77;;;;;;;-143.84;50.76;45209.03;5088239;28;20998;-61
2023/12/17 09:53:31;;;;;;;0.90;0.73;;;;;;;-143.84;50.16;45243.31;5088432;28;20447;-61
2023/12/17 09:55:58;;;;;;;0.80;0.50;;;;;;;-143.84;51.70;45212.84;5086715;28;20443;-61
2023/12/17 09:58:26;;;;;;;1.00;0.80;;;;;;;-143.84;53.15;45220.44;5085368;28;20471;-61
2023/12/17 10:00:54;;;;;;;1.10;0.87;;;;;;;-143.84;53.72;45226.16;5085434;28;20516;-61
2023/12/17 10:03:21;;;;;;;3.30;1.27;;;;;;;-143.84;54.55;45203.31;5085607;28;20444;-61
2023/12/17 10:05:52;;;;;;;0.80;0.50;;;;;;;-143.84;54.53;45233.78;5085372;28;20476;-61
2023/12/17 10:08:21;;;;;;;1.57;1.43;;;;;;;-143.84;54.72;45224.25;5085097;28;20547;-61
2023/12/17 10:10:48;;;;;;;1.10;0.97;;;;;;;-143.84;55.71;45178.56;5085567;28;20444;-61
2023/12/17 10:13:19;;;;;;;1.00;0.90;;;;;;;-143.84;56.36;45195.69;5085574;28;20451;-59
2023/12/17 10:15:48;;;;;;;0.80;0.60;;;;;;;-143.84;57.33;45174.75;5085293;28;20451;-59
2023/12/17 10:18:17;;;;;;;5.27;2.80;;;;;;;-143.84;56.03;45241.41;5084964;28;20854;-58
2023/12/17 10:20:45;;;;;;;0.80;0.50;;;;;;;-143.84;55.22;45212.84;5085748;28;20469;-58
2023/12/17 10:23:13;;;;;;;0.80;0.67;;;;;;;-143.84;55.46;45197.59;5085314;28;20443;-59
2023/12/17 10:25:42;;;;;;;1.50;1.40;;;;;;;-143.84;55.30;45212.84;5085627;28;20480;-58
2023/12/17 10:28:11;;;;;;;1.27;1.17;;;;;;;-143.84;55.79;45199.50;5084993;28;20455;-58
2023/12/17 10:30:39;;;;;;;1.73;1.07;;;;;;;-143.84;51.96;45207.13;5084756;28;20448;-59
2023/12/17 10:33:10;;;;;;;1.37;0.90;;;;;;;-143.84;52.34;45199.50;5085406;28;20930;-58
2023/12/17 10:35:37;;;;;;;1.37;1.27;;;;;;;-143.84;53.72;45209.03;5085346;28;20523;-58
2023/12/17 10:38:06;;;;;;;1.73;1.63;;;;;;;-143.84;55.51;45224.25;5084831;28;20474;-59
2023/12/17 10:40:34;;;;;;;2.70;1.13;;;;;;;-143.84;55.30;45209.03;5085475;28;20482;-60
2023/12/17 10:43:05;;;;;;;1.90;1.03;;;;;;;-143.84;55.77;45207.13;5085140;28;20447;-59
2023/12/17 10:45:34;;;;;;;1.10;0.60;;;;;;;-143.84;56.74;45203.31;5083612;28;20864;-58
2023/12/17 10:48:02;;;;;;;1.77;0.80;;;;;;;-143.84;57.22;45201.41;5083158;28;20496;-59
2023/12/17 10:50:29;;;;;;;1.27;1.07;;;;;;;-143.84;56.79;45216.63;5083180;28;21086;-58
2023/12/17 10:52:57;;;;;;;2.20;2.00;;;;;;;-143.84;54.80;45199.50;5085271;28;20448;-59
2023/12/17 10:55:24;;;;;;;2.50;1.00;;;;;;;-143.84;54.26;45201.41;5085243;28;20459;-59
2023/12/17 10:57:57;;;;;;;0.80;0.50;;;;;;;-143.84;54.81;45197.59;5085156;28;20448;-59
2023/12/17 11:00:29;;;;;;;1.13;0.97;;;;;;;-143.84;54.26;45222.34;5084973;28;20439;-59
2023/12/17 11:02:59;;;;;;;1.47;1.00;;;;;;;-143.84;54.57;45207.13;5085241;28;20439;-58
2023/12/17 11:05:26;;;;;;;0.80;0.60;;;;;;;-143.84;53.30;45231.88;5084838;28;20512;-58
2023/12/17 11:07:54;;;;;;;0.83;0.70;;;;;;;-143.84;52.00;45218.53;5084895;28;20435;-59
2023/12/17 11:10:21;;;;;;;0.90;0.60;;;;;;;-143.84;51.74;45209.03;5084980;28;20443;-59
2023/12/17 11:12:49;;;;;;;0.80;0.50;;;;;;;-143.84;50.66;45195.69;5085084;28;21134;-60
2023/12/17 11:15:21;;;;;;;1.17;1.07;;;;;;;-143.84;50.69;45209.03;5084460;28;20440;-60
2023/12/17 11:17:53;;;;;;;0.90;0.60;;;;;;;-143.84;51.33;45193.78;5085707;28;20488;-60